sensor_id;sensor_type;location;lat;lon;timestamp;temperature;humidity
39777;DHT22;25453;48.162;14.510;2023-02-19T00:00:53;13.30;65.90
39777;DHT22;25453;48.162;14.510;2023-02-19T00:03:20;13.30;66.00
39777;DHT22;25453;48.162;14.510;2023-02-19T00:05:47;13.30;66.00
39777;DHT22;25453;48.162;14.510;2023-02-19T00:08:14;13.30;66.00
39777;DHT22;25453;48.162;14.510;2023-02-19T00:10:40;13.30;66.10
39777;DHT22;25453;48.162;14.510;2023-02-19T00:13:07;13.30;66.20
39777;DHT22;25453;48.162;14.510;2023-02-19T00:15:34;13.30;66.20
39777;DHT22;25453;48.162;14.510;2023-02-19T00:18:01;13.20;66.40
39777;DHT22;25453;48.162;14.510;2023-02-19T00:20:28;13.20;66.50
39777;DHT22;25453;48.162;14.510;2023-02-19T00:22:55;13.20;66.60
39777;DHT22;25453;48.162;14.510;2023-02-19T00:25:22;13.20;66.60
39777;DHT22;25453;48.162;14.510;2023-02-19T00:27:49;13.20;66.70
39777;DHT22;25453;48.162;14.510;2023-02-19T00:30:16;13.20;66.80
39777;DHT22;25453;48.162;14.510;2023-02-19T00:32:43;13.20;66.90
39777;DHT22;25453;48.162;14.510;2023-02-19T00:35:09;13.20;66.90
39777;DHT22;25453;48.162;14.510;2023-02-19T00:37:36;13.10;67.00
39777;DHT22;25453;48.162;14.510;2023-02-19T00:40:03;13.10;67.10
39777;DHT22;25453;48.162;14.510;2023-02-19T00:42:30;13.10;67.20
39777;DHT22;25453;48.162;14.510;2023-02-19T00:44:57;13.10;67.30
39777;DHT22;25453;48.162;14.510;2023-02-19T00:47:24;13.10;67.40
39777;DHT22;25453;48.162;14.510;2023-02-19T00:49:51;13.10;67.50
39777;DHT22;25453;48.162;14.510;2023-02-19T00:52:18;13.10;67.50
39777;DHT22;25453;48.162;14.510;2023-02-19T00:54:45;13.10;67.60
39777;DHT22;25453;48.162;14.510;2023-02-19T00:57:13;13.10;67.70
39777;DHT22;25453;48.162;14.510;2023-02-19T00:59:40;13.10;67.80
39777;DHT22;25453;48.162;14.510;2023-02-19T01:02:07;13.10;67.90
39777;DHT22;25453;48.162;14.510;2023-02-19T01:04:34;13.10;68.00
39777;DHT22;25453;48.162;14.510;2023-02-19T01:07:01;13.10;68.20
39777;DHT22;25453;48.162;14.510;2023-02-19T01:09:28;13.00;68.40
39777;DHT22;25453;48.162;14.510;2023-02-19T01:11:54;13.00;68.70
39777;DHT22;25453;48.162;14.510;2023-02-19T01:14:21;13.00;69.00
39777;DHT22;25453;48.162;14.510;2023-02-19T01:16:48;12.90;69.20
39777;DHT22;25453;48.162;14.510;2023-02-19T01:19:15;12.90;69.60
39777;DHT22;25453;48.162;14.510;2023-02-19T01:21:42;12.80;69.80
39777;DHT22;25453;48.162;14.510;2023-02-19T01:24:09;12.80;70.10
39777;DHT22;25453;48.162;14.510;2023-02-19T01:26:36;12.80;70.30
39777;DHT22;25453;48.162;14.510;2023-02-19T01:29:03;12.80;70.60
39777;DHT22;25453;48.162;14.510;2023-02-19T01:31:30;12.70;70.80
39777;DHT22;25453;48.162;14.510;2023-02-19T01:33:58;12.70;71.10
39777;DHT22;25453;48.162;14.510;2023-02-19T01:36:26;12.70;71.30
39777;DHT22;25453;48.162;14.510;2023-02-19T01:38:53;12.60;71.60
39777;DHT22;25453;48.162;14.510;2023-02-19T01:41:22;12.60;71.80
39777;DHT22;25453;48.162;14.510;2023-02-19T01:46:41;12.60;72.50
39777;DHT22;25453;48.162;14.510;2023-02-19T01:49:20;12.60;72.70
39777;DHT22;25453;48.162;14.510;2023-02-19T01:52:04;12.50;72.90
39777;DHT22;25453;48.162;14.510;2023-02-19T01:54:34;12.50;73.10
39777;DHT22;25453;48.162;14.510;2023-02-19T01:57:03;12.50;73.30
39777;DHT22;25453;48.162;14.510;2023-02-19T01:59:32;12.50;73.50
39777;DHT22;25453;48.162;14.510;2023-02-19T02:01:59;12.50;73.60
39777;DHT22;25453;48.162;14.510;2023-02-19T02:04:26;12.50;73.80
39777;DHT22;25453;48.162;14.510;2023-02-19T02:06:55;12.50;73.90
39777;DHT22;25453;48.162;14.510;2023-02-19T02:09:25;12.50;74.10
39777;DHT22;25453;48.162;14.510;2023-02-19T02:12:11;12.50;74.20
39777;DHT22;25453;48.162;14.510;2023-02-19T02:14:44;12.50;74.40
39777;DHT22;25453;48.162;14.510;2023-02-19T02:20:00;12.50;74.60
39777;DHT22;25453;48.162;14.510;2023-02-19T02:22:34;12.40;74.70
39777;DHT22;25453;48.162;14.510;2023-02-19T02:30:22;12.50;75.00
39777;DHT22;25453;48.162;14.510;2023-02-19T02:35:37;12.50;75.10
39777;DHT22;25453;48.162;14.510;2023-02-19T02:38:06;12.50;75.10
39777;DHT22;25453;48.162;14.510;2023-02-19T02:40:34;12.50;75.20
39777;DHT22;25453;48.162;14.510;2023-02-19T02:43:02;12.50;75.20
39777;DHT22;25453;48.162;14.510;2023-02-19T02:45:30;12.50;75.30
39777;DHT22;25453;48.162;14.510;2023-02-19T02:48:01;12.50;75.30
39777;DHT22;25453;48.162;14.510;2023-02-19T02:50:34;12.40;75.40
39777;DHT22;25453;48.162;14.510;2023-02-19T02:53:02;12.40;75.50
39777;DHT22;25453;48.162;14.510;2023-02-19T02:55:50;12.40;75.50
39777;DHT22;25453;48.162;14.510;2023-02-19T02:58:19;12.40;75.60
39777;DHT22;25453;48.162;14.510;2023-02-19T03:00:49;12.40;75.70
39777;DHT22;25453;48.162;14.510;2023-02-19T03:03:38;12.30;75.90
39777;DHT22;25453;48.162;14.510;2023-02-19T03:06:06;12.30;76.10
39777;DHT22;25453;48.162;14.510;2023-02-19T03:08:37;12.30;76.10
39777;DHT22;25453;48.162;14.510;2023-02-19T03:11:06;12.30;76.30
39777;DHT22;25453;48.162;14.510;2023-02-19T03:13:58;12.30;76.40
39777;DHT22;25453;48.162;14.510;2023-02-19T03:16:46;12.20;76.40
39777;DHT22;25453;48.162;14.510;2023-02-19T03:19:34;12.20;76.60
39777;DHT22;25453;48.162;14.510;2023-02-19T03:24:37;12.20;76.70
39777;DHT22;25453;48.162;14.510;2023-02-19T03:27:24;12.20;76.80
39777;DHT22;25453;48.162;14.510;2023-02-19T03:29:52;12.20;76.90
39777;DHT22;25453;48.162;14.510;2023-02-19T03:32:28;12.20;77.00
39777;DHT22;25453;48.162;14.510;2023-02-19T03:35:00;12.20;77.10
39777;DHT22;25453;48.162;14.510;2023-02-19T03:37:32;12.20;77.00
39777;DHT22;25453;48.162;14.510;2023-02-19T03:40:00;12.20;77.00
39777;DHT22;25453;48.162;14.510;2023-02-19T03:47:29;12.20;77.10
39777;DHT22;25453;48.162;14.510;2023-02-19T03:52:31;12.20;77.10
39777;DHT22;25453;48.162;14.510;2023-02-19T03:55:06;12.20;77.10
39777;DHT22;25453;48.162;14.510;2023-02-19T04:00:12;12.20;77.10
39777;DHT22;25453;48.162;14.510;2023-02-19T04:02:53;12.20;76.90
39777;DHT22;25453;48.162;14.510;2023-02-19T04:05:24;12.30;76.90
39777;DHT22;25453;48.162;14.510;2023-02-19T04:07:54;12.30;76.80
39777;DHT22;25453;48.162;14.510;2023-02-19T04:10:21;12.30;76.70
39777;DHT22;25453;48.162;14.510;2023-02-19T04:12:56;12.30;76.50
39777;DHT22;25453;48.162;14.510;2023-02-19T04:15:26;12.30;76.40
39777;DHT22;25453;48.162;14.510;2023-02-19T04:20:22;12.30;76.20
39777;DHT22;25453;48.162;14.510;2023-02-19T04:22:49;12.30;76.20
39777;DHT22;25453;48.162;14.510;2023-02-19T04:25:17;12.30;76.20
39777;DHT22;25453;48.162;14.510;2023-02-19T04:27:43;12.30;76.00
39777;DHT22;25453;48.162;14.510;2023-02-19T04:30:11;12.30;76.00
39777;DHT22;25453;48.162;14.510;2023-02-19T04:32:39;12.30;75.90
39777;DHT22;25453;48.162;14.510;2023-02-19T04:35:05;12.30;75.90
39777;DHT22;25453;48.162;14.510;2023-02-19T04:37:32;12.30;75.90
39777;DHT22;25453;48.162;14.510;2023-02-19T04:39:59;12.30;75.90
39777;DHT22;25453;48.162;14.510;2023-02-19T04:42:26;12.30;75.80
39777;DHT22;25453;48.162;14.510;2023-02-19T04:44:53;12.30;75.80
39777;DHT22;25453;48.162;14.510;2023-02-19T04:47:20;12.30;75.90
39777;DHT22;25453;48.162;14.510;2023-02-19T04:49:47;12.30;75.80
39777;DHT22;25453;48.162;14.510;2023-02-19T04:52:14;12.30;75.80
39777;DHT22;25453;48.162;14.510;2023-02-19T04:54:41;12.30;75.80
39777;DHT22;25453;48.162;14.510;2023-02-19T04:57:08;12.30;75.80
39777;DHT22;25453;48.162;14.510;2023-02-19T04:59:35;12.30;75.80
39777;DHT22;25453;48.162;14.510;2023-02-19T05:02:01;12.30;75.80
39777;DHT22;25453;48.162;14.510;2023-02-19T05:04:28;12.30;75.70
39777;DHT22;25453;48.162;14.510;2023-02-19T05:06:55;12.20;75.80
39777;DHT22;25453;48.162;14.510;2023-02-19T05:09:22;12.20;75.80
39777;DHT22;25453;48.162;14.510;2023-02-19T05:11:49;12.20;75.90
39777;DHT22;25453;48.162;14.510;2023-02-19T05:14:16;12.20;75.90
39777;DHT22;25453;48.162;14.510;2023-02-19T05:16:43;12.20;76.00
39777;DHT22;25453;48.162;14.510;2023-02-19T05:19:10;12.20;76.00
39777;DHT22;25453;48.162;14.510;2023-02-19T05:21:38;12.20;76.00
39777;DHT22;25453;48.162;14.510;2023-02-19T05:24:08;12.10;75.90
39777;DHT22;25453;48.162;14.510;2023-02-19T05:26:35;12.10;76.00
39777;DHT22;25453;48.162;14.510;2023-02-19T05:29:01;12.10;76.00
39777;DHT22;25453;48.162;14.510;2023-02-19T05:31:28;12.10;76.00
39777;DHT22;25453;48.162;14.510;2023-02-19T05:33:56;12.10;75.90
39777;DHT22;25453;48.162;14.510;2023-02-19T05:36:23;12.10;76.00
39777;DHT22;25453;48.162;14.510;2023-02-19T05:38:51;12.10;75.90
39777;DHT22;25453;48.162;14.510;2023-02-19T05:41:28;12.10;75.90
39777;DHT22;25453;48.162;14.510;2023-02-19T05:43:55;12.10;75.80
39777;DHT22;25453;48.162;14.510;2023-02-19T05:46:23;12.10;75.90
39777;DHT22;25453;48.162;14.510;2023-02-19T05:48:51;12.10;75.90
39777;DHT22;25453;48.162;14.510;2023-02-19T05:51:20;12.10;75.90
39777;DHT22;25453;48.162;14.510;2023-02-19T05:53:47;12.10;76.00
39777;DHT22;25453;48.162;14.510;2023-02-19T05:56:34;12.00;76.00
39777;DHT22;25453;48.162;14.510;2023-02-19T05:59:03;12.00;76.00
39777;DHT22;25453;48.162;14.510;2023-02-19T06:01:32;12.00;76.10
39777;DHT22;25453;48.162;14.510;2023-02-19T06:04:00;12.00;76.20
39777;DHT22;25453;48.162;14.510;2023-02-19T06:06:26;11.90;76.30
39777;DHT22;25453;48.162;14.510;2023-02-19T06:08:53;11.90;76.50
39777;DHT22;25453;48.162;14.510;2023-02-19T06:11:20;11.80;76.70
39777;DHT22;25453;48.162;14.510;2023-02-19T06:13:48;11.80;77.00
39777;DHT22;25453;48.162;14.510;2023-02-19T06:16:17;11.70;77.20
39777;DHT22;25453;48.162;14.510;2023-02-19T06:18:44;11.70;77.40
39777;DHT22;25453;48.162;14.510;2023-02-19T06:21:12;11.70;77.90
39777;DHT22;25453;48.162;14.510;2023-02-19T06:23:39;11.70;77.80
39777;DHT22;25453;48.162;14.510;2023-02-19T06:26:11;11.60;78.00
39777;DHT22;25453;48.162;14.510;2023-02-19T06:28:38;11.60;78.20
39777;DHT22;25453;48.162;14.510;2023-02-19T06:31:06;11.50;78.30
39777;DHT22;25453;48.162;14.510;2023-02-19T06:33:34;11.50;78.60
39777;DHT22;25453;48.162;14.510;2023-02-19T06:36:01;11.50;78.50
39777;DHT22;25453;48.162;14.510;2023-02-19T06:38:29;11.50;78.70
39777;DHT22;25453;48.162;14.510;2023-02-19T06:41:03;11.50;78.70
39777;DHT22;25453;48.162;14.510;2023-02-19T06:43:31;11.50;78.90
39777;DHT22;25453;48.162;14.510;2023-02-19T06:45:58;11.50;78.90
39777;DHT22;25453;48.162;14.510;2023-02-19T06:48:26;11.40;78.90
39777;DHT22;25453;48.162;14.510;2023-02-19T06:50:53;11.50;78.90
39777;DHT22;25453;48.162;14.510;2023-02-19T06:53:20;11.40;79.00
39777;DHT22;25453;48.162;14.510;2023-02-19T06:56:00;11.40;78.90
39777;DHT22;25453;48.162;14.510;2023-02-19T06:58:28;11.40;79.10
39777;DHT22;25453;48.162;14.510;2023-02-19T07:00:55;11.40;79.10
39777;DHT22;25453;48.162;14.510;2023-02-19T07:03:22;11.50;78.90
39777;DHT22;25453;48.162;14.510;2023-02-19T07:05:49;11.50;78.80
39777;DHT22;25453;48.162;14.510;2023-02-19T07:08:16;11.50;78.80
39777;DHT22;25453;48.162;14.510;2023-02-19T07:10:43;11.50;78.70
39777;DHT22;25453;48.162;14.510;2023-02-19T07:13:11;11.50;78.70
39777;DHT22;25453;48.162;14.510;2023-02-19T07:15:38;11.50;78.70
39777;DHT22;25453;48.162;14.510;2023-02-19T07:18:05;11.50;78.70
39777;DHT22;25453;48.162;14.510;2023-02-19T07:20:36;11.50;78.50
39777;DHT22;25453;48.162;14.510;2023-02-19T07:23:03;11.50;78.40
39777;DHT22;25453;48.162;14.510;2023-02-19T07:25:30;11.50;78.40
39777;DHT22;25453;48.162;14.510;2023-02-19T07:27:57;11.50;78.40
39777;DHT22;25453;48.162;14.510;2023-02-19T07:30:24;11.50;78.40
39777;DHT22;25453;48.162;14.510;2023-02-19T07:32:51;11.50;78.20
39777;DHT22;25453;48.162;14.510;2023-02-19T07:35:18;11.50;78.20
39777;DHT22;25453;48.162;14.510;2023-02-19T07:37:45;11.50;78.20
39777;DHT22;25453;48.162;14.510;2023-02-19T07:40:12;11.60;78.20
39777;DHT22;25453;48.162;14.510;2023-02-19T07:42:39;11.60;78.20
39777;DHT22;25453;48.162;14.510;2023-02-19T07:45:06;11.60;78.30
39777;DHT22;25453;48.162;14.510;2023-02-19T07:47:33;11.60;78.30
39777;DHT22;25453;48.162;14.510;2023-02-19T07:49:59;11.60;78.20
39777;DHT22;25453;48.162;14.510;2023-02-19T07:52:26;11.60;78.20
39777;DHT22;25453;48.162;14.510;2023-02-19T07:54:53;11.70;78.20
39777;DHT22;25453;48.162;14.510;2023-02-19T07:57:20;11.70;78.10
39777;DHT22;25453;48.162;14.510;2023-02-19T07:59:48;11.70;78.10
39777;DHT22;25453;48.162;14.510;2023-02-19T08:02:15;11.80;78.20
39777;DHT22;25453;48.162;14.510;2023-02-19T08:05:01;11.80;78.00
39777;DHT22;25453;48.162;14.510;2023-02-19T08:07:30;11.80;77.70
39777;DHT22;25453;48.162;14.510;2023-02-19T08:09:56;11.80;77.70
39777;DHT22;25453;48.162;14.510;2023-02-19T08:12:56;11.80;77.70
39777;DHT22;25453;48.162;14.510;2023-02-19T08:15:41;11.80;77.60
39777;DHT22;25453;48.162;14.510;2023-02-19T08:18:09;11.80;77.60
39777;DHT22;25453;48.162;14.510;2023-02-19T08:20:36;11.80;77.60
39777;DHT22;25453;48.162;14.510;2023-02-19T08:23:03;11.90;77.50
39777;DHT22;25453;48.162;14.510;2023-02-19T08:25:30;11.90;77.50
39777;DHT22;25453;48.162;14.510;2023-02-19T08:27:57;11.90;77.10
39777;DHT22;25453;48.162;14.510;2023-02-19T08:30:26;11.90;77.00
39777;DHT22;25453;48.162;14.510;2023-02-19T08:32:54;11.90;77.10
39777;DHT22;25453;48.162;14.510;2023-02-19T08:35:21;11.90;77.10
39777;DHT22;25453;48.162;14.510;2023-02-19T08:37:48;12.00;77.10
39777;DHT22;25453;48.162;14.510;2023-02-19T08:40:15;12.00;77.10
39777;DHT22;25453;48.162;14.510;2023-02-19T08:42:42;12.00;77.10
39777;DHT22;25453;48.162;14.510;2023-02-19T08:45:09;12.10;77.10
39777;DHT22;25453;48.162;14.510;2023-02-19T08:47:36;12.10;76.90
39777;DHT22;25453;48.162;14.510;2023-02-19T08:50:05;12.20;76.80
39777;DHT22;25453;48.162;14.510;2023-02-19T08:52:32;12.20;76.60
39777;DHT22;25453;48.162;14.510;2023-02-19T08:54:59;12.20;76.30
39777;DHT22;25453;48.162;14.510;2023-02-19T08:57:27;12.20;76.10
39777;DHT22;25453;48.162;14.510;2023-02-19T08:59:55;12.10;76.30
39777;DHT22;25453;48.162;14.510;2023-02-19T09:02:23;12.10;76.60
39777;DHT22;25453;48.162;14.510;2023-02-19T09:04:50;12.10;76.80
39777;DHT22;25453;48.162;14.510;2023-02-19T09:07:18;12.00;77.00
39777;DHT22;25453;48.162;14.510;2023-02-19T09:09:49;12.00;77.10
39777;DHT22;25453;48.162;14.510;2023-02-19T09:12:15;12.00;76.90
39777;DHT22;25453;48.162;14.510;2023-02-19T09:14:42;11.90;76.80
39777;DHT22;25453;48.162;14.510;2023-02-19T09:17:10;11.70;76.70
39777;DHT22;25453;48.162;14.510;2023-02-19T09:19:38;11.60;77.10
39777;DHT22;25453;48.162;14.510;2023-02-19T09:22:05;11.50;77.60
39777;DHT22;25453;48.162;14.510;2023-02-19T09:24:32;11.40;78.00
39777;DHT22;25453;48.162;14.510;2023-02-19T09:26:59;11.40;78.50
39777;DHT22;25453;48.162;14.510;2023-02-19T09:29:26;11.40;78.70
39777;DHT22;25453;48.162;14.510;2023-02-19T09:31:57;11.40;79.00
39777;DHT22;25453;48.162;14.510;2023-02-19T09:34:25;11.40;79.20
39777;DHT22;25453;48.162;14.510;2023-02-19T09:36:52;11.40;79.40
39777;DHT22;25453;48.162;14.510;2023-02-19T09:39:19;11.40;79.70
39777;DHT22;25453;48.162;14.510;2023-02-19T09:41:51;11.40;79.60
39777;DHT22;25453;48.162;14.510;2023-02-19T09:44:23;11.50;79.50
39777;DHT22;25453;48.162;14.510;2023-02-19T09:46:51;11.50;79.20
39777;DHT22;25453;48.162;14.510;2023-02-19T09:51:57;11.50;78.90
39777;DHT22;25453;48.162;14.510;2023-02-19T09:54:25;11.50;78.80
39777;DHT22;25453;48.162;14.510;2023-02-19T09:56:54;11.60;78.70
39777;DHT22;25453;48.162;14.510;2023-02-19T09:59:23;11.50;78.20
39777;DHT22;25453;48.162;14.510;2023-02-19T10:01:55;11.60;78.20
39777;DHT22;25453;48.162;14.510;2023-02-19T10:04:23;11.50;78.20
39777;DHT22;25453;48.162;14.510;2023-02-19T10:06:50;11.60;78.30
39777;DHT22;25453;48.162;14.510;2023-02-19T10:09:20;11.60;78.20
39777;DHT22;25453;48.162;14.510;2023-02-19T10:11:47;11.60;78.00
39777;DHT22;25453;48.162;14.510;2023-02-19T10:14:22;11.60;78.10
39777;DHT22;25453;48.162;14.510;2023-02-19T10:16:52;11.60;78.00
39777;DHT22;25453;48.162;14.510;2023-02-19T10:19:19;11.70;77.80
39777;DHT22;25453;48.162;14.510;2023-02-19T10:21:46;11.70;78.10
39777;DHT22;25453;48.162;14.510;2023-02-19T10:24:15;11.80;78.30
39777;DHT22;25453;48.162;14.510;2023-02-19T10:26:45;11.90;78.40
39777;DHT22;25453;48.162;14.510;2023-02-19T10:29:12;12.00;78.20
39777;DHT22;25453;48.162;14.510;2023-02-19T10:31:39;12.10;77.40
39777;DHT22;25453;48.162;14.510;2023-02-19T10:34:07;12.10;77.00
39777;DHT22;25453;48.162;14.510;2023-02-19T10:36:42;12.10;76.90
39777;DHT22;25453;48.162;14.510;2023-02-19T10:41:47;12.20;76.90
39777;DHT22;25453;48.162;14.510;2023-02-19T10:44:15;12.20;76.40
39777;DHT22;25453;48.162;14.510;2023-02-19T10:46:44;12.20;76.00
39777;DHT22;25453;48.162;14.510;2023-02-19T10:49:34;12.20;75.90
39777;DHT22;25453;48.162;14.510;2023-02-19T10:52:00;12.20;75.70
39777;DHT22;25453;48.162;14.510;2023-02-19T10:54:28;12.30;75.50
39777;DHT22;25453;48.162;14.510;2023-02-19T11:00:00;12.30;75.30
39777;DHT22;25453;48.162;14.510;2023-02-19T11:02:29;12.40;74.90
39777;DHT22;25453;48.162;14.510;2023-02-19T11:07:29;12.40;75.00
39777;DHT22;25453;48.162;14.510;2023-02-19T11:09:56;12.50;74.90
39777;DHT22;25453;48.162;14.510;2023-02-19T11:12:25;12.60;74.60
39777;DHT22;25453;48.162;14.510;2023-02-19T11:14:53;12.60;74.40
39777;DHT22;25453;48.162;14.510;2023-02-19T11:17:25;12.60;74.00
39777;DHT22;25453;48.162;14.510;2023-02-19T11:19:53;12.70;73.60
39777;DHT22;25453;48.162;14.510;2023-02-19T11:27:29;12.60;73.50
39777;DHT22;25453;48.162;14.510;2023-02-19T11:30:18;12.60;73.00
39777;DHT22;25453;48.162;14.510;2023-02-19T11:32:43;12.50;72.70
39777;DHT22;25453;48.162;14.510;2023-02-19T11:35:17;12.50;72.80
39777;DHT22;25453;48.162;14.510;2023-02-19T11:37:57;12.50;72.80
39777;DHT22;25453;48.162;14.510;2023-02-19T11:40:32;12.40;72.60
39777;DHT22;25453;48.162;14.510;2023-02-19T11:43:06;12.40;72.50
39777;DHT22;25453;48.162;14.510;2023-02-19T11:45:36;12.40;72.40
39777;DHT22;25453;48.162;14.510;2023-02-19T11:53:27;12.40;72.00
39777;DHT22;25453;48.162;14.510;2023-02-19T11:56:12;12.40;71.60
39777;DHT22;25453;48.162;14.510;2023-02-19T12:06:46;12.60;71.00
39777;DHT22;25453;48.162;14.510;2023-02-19T12:22:15;12.50;69.90
39777;DHT22;25453;48.162;14.510;2023-02-19T12:25:08;12.30;70.60
39777;DHT22;25453;48.162;14.510;2023-02-19T12:38:29;11.90;72.80
39777;DHT22;25453;48.162;14.510;2023-02-19T12:41:09;11.80;72.90
39777;DHT22;25453;48.162;14.510;2023-02-19T12:44:01;11.70;72.80
39777;DHT22;25453;48.162;14.510;2023-02-19T12:46:31;11.60;73.00
39777;DHT22;25453;48.162;14.510;2023-02-19T12:49:12;11.60;73.50
39777;DHT22;25453;48.162;14.510;2023-02-19T12:51:46;11.60;74.10
39777;DHT22;25453;48.162;14.510;2023-02-19T12:54:22;11.80;75.00
39777;DHT22;25453;48.162;14.510;2023-02-19T13:01:50;12.40;73.90
39777;DHT22;25453;48.162;14.510;2023-02-19T13:07:02;12.60;73.90
39777;DHT22;25453;48.162;14.510;2023-02-19T13:14:48;12.80;72.20
39777;DHT22;25453;48.162;14.510;2023-02-19T13:20:00;12.70;71.90
39777;DHT22;25453;48.162;14.510;2023-02-19T13:22:33;12.60;71.80
39777;DHT22;25453;48.162;14.510;2023-02-19T13:25:20;12.60;71.80
39777;DHT22;25453;48.162;14.510;2023-02-19T13:37:54;12.30;71.50
39777;DHT22;25453;48.162;14.510;2023-02-19T13:40:41;12.30;71.60
39777;DHT22;25453;48.162;14.510;2023-02-19T13:43:27;12.30;71.50
39777;DHT22;25453;48.162;14.510;2023-02-19T13:45:56;12.30;71.20
39777;DHT22;25453;48.162;14.510;2023-02-19T13:48:29;12.20;71.10
39777;DHT22;25453;48.162;14.510;2023-02-19T13:59:11;12.20;70.10
39777;DHT22;25453;48.162;14.510;2023-02-19T14:14:35;12.20;69.60
39777;DHT22;25453;48.162;14.510;2023-02-19T14:17:22;12.20;69.70
39777;DHT22;25453;48.162;14.510;2023-02-19T14:25:06;12.20;68.60
39777;DHT22;25453;48.162;14.510;2023-02-19T14:27:35;12.20;68.60
39777;DHT22;25453;48.162;14.510;2023-02-19T14:30:08;12.20;68.60
39777;DHT22;25453;48.162;14.510;2023-02-19T14:32:37;12.20;68.60
39777;DHT22;25453;48.162;14.510;2023-02-19T14:35:05;12.20;68.50
39777;DHT22;25453;48.162;14.510;2023-02-19T14:37:32;12.20;68.30
39777;DHT22;25453;48.162;14.510;2023-02-19T14:39:59;12.20;68.20
39777;DHT22;25453;48.162;14.510;2023-02-19T14:42:26;12.20;68.10
39777;DHT22;25453;48.162;14.510;2023-02-19T14:44:59;12.20;67.90
39777;DHT22;25453;48.162;14.510;2023-02-19T14:47:29;12.20;67.90
39777;DHT22;25453;48.162;14.510;2023-02-19T14:50:01;12.30;67.80
39777;DHT22;25453;48.162;14.510;2023-02-19T14:52:42;12.30;67.70
39777;DHT22;25453;48.162;14.510;2023-02-19T14:55:19;12.30;67.50
39777;DHT22;25453;48.162;14.510;2023-02-19T14:57:47;12.30;67.20
39777;DHT22;25453;48.162;14.510;2023-02-19T15:02:51;12.30;67.10
39777;DHT22;25453;48.162;14.510;2023-02-19T15:05:21;12.30;67.20
39777;DHT22;25453;48.162;14.510;2023-02-19T15:07:49;12.30;66.90
39777;DHT22;25453;48.162;14.510;2023-02-19T15:10:16;12.30;67.00
39777;DHT22;25453;48.162;14.510;2023-02-19T15:12:45;12.30;66.90
39777;DHT22;25453;48.162;14.510;2023-02-19T15:15:16;12.30;66.90
39777;DHT22;25453;48.162;14.510;2023-02-19T15:17:44;12.30;66.90
39777;DHT22;25453;48.162;14.510;2023-02-19T15:20:11;12.30;66.90
39777;DHT22;25453;48.162;14.510;2023-02-19T15:22:42;12.30;67.00
39777;DHT22;25453;48.162;14.510;2023-02-19T15:25:12;12.30;66.70
39777;DHT22;25453;48.162;14.510;2023-02-19T15:27:41;12.30;66.70
39777;DHT22;25453;48.162;14.510;2023-02-19T15:32:58;12.30;66.50
39777;DHT22;25453;48.162;14.510;2023-02-19T15:35:26;12.30;66.60
39777;DHT22;25453;48.162;14.510;2023-02-19T15:37:53;12.30;66.50
39777;DHT22;25453;48.162;14.510;2023-02-19T15:40:29;12.30;66.50
39777;DHT22;25453;48.162;14.510;2023-02-19T15:42:57;12.30;66.40
39777;DHT22;25453;48.162;14.510;2023-02-19T15:45:39;12.20;66.30
39777;DHT22;25453;48.162;14.510;2023-02-19T15:48:08;12.20;66.30
39777;DHT22;25453;48.162;14.510;2023-02-19T15:50:38;12.20;66.20
39777;DHT22;25453;48.162;14.510;2023-02-19T15:53:20;12.20;66.00
39777;DHT22;25453;48.162;14.510;2023-02-19T15:55:59;12.20;65.70
39777;DHT22;25453;48.162;14.510;2023-02-19T16:01:00;12.20;65.50
39777;DHT22;25453;48.162;14.510;2023-02-19T16:03:28;12.20;65.60
39777;DHT22;25453;48.162;14.510;2023-02-19T16:08:29;12.10;65.60
39777;DHT22;25453;48.162;14.510;2023-02-19T16:10:58;12.10;65.80
39777;DHT22;25453;48.162;14.510;2023-02-19T16:13:26;12.10;66.20
39777;DHT22;25453;48.162;14.510;2023-02-19T16:18:27;11.80;67.00
39777;DHT22;25453;48.162;14.510;2023-02-19T16:20:53;11.70;67.70
39777;DHT22;25453;48.162;14.510;2023-02-19T16:23:21;11.50;67.90
39777;DHT22;25453;48.162;14.510;2023-02-19T16:25:56;11.50;68.30
39777;DHT22;25453;48.162;14.510;2023-02-19T16:28:23;11.40;68.80
39777;DHT22;25453;48.162;14.510;2023-02-19T16:35:54;11.30;70.00
39777;DHT22;25453;48.162;14.510;2023-02-19T16:38:20;11.30;70.30
39777;DHT22;25453;48.162;14.510;2023-02-19T16:43:23;11.30;70.90
39777;DHT22;25453;48.162;14.510;2023-02-19T16:45:50;11.30;71.00
39777;DHT22;25453;48.162;14.510;2023-02-19T16:48:18;11.30;71.20
39777;DHT22;25453;48.162;14.510;2023-02-19T16:50:46;11.30;71.30
39777;DHT22;25453;48.162;14.510;2023-02-19T16:53:17;11.30;71.20
39777;DHT22;25453;48.162;14.510;2023-02-19T16:55:45;11.30;71.30
39777;DHT22;25453;48.162;14.510;2023-02-19T16:58:13;11.30;71.40
39777;DHT22;25453;48.162;14.510;2023-02-19T17:00:39;11.30;71.40
39777;DHT22;25453;48.162;14.510;2023-02-19T17:03:08;11.30;71.40
39777;DHT22;25453;48.162;14.510;2023-02-19T17:05:36;11.30;71.30
39777;DHT22;25453;48.162;14.510;2023-02-19T17:08:08;11.30;71.20
39777;DHT22;25453;48.162;14.510;2023-02-19T17:10:39;11.30;71.20
39777;DHT22;25453;48.162;14.510;2023-02-19T17:13:05;11.30;71.10
39777;DHT22;25453;48.162;14.510;2023-02-19T17:15:32;11.30;71.00
39777;DHT22;25453;48.162;14.510;2023-02-19T17:17:59;11.30;71.00
39777;DHT22;25453;48.162;14.510;2023-02-19T17:20:28;11.30;70.90
39777;DHT22;25453;48.162;14.510;2023-02-19T17:22:56;11.30;70.80
39777;DHT22;25453;48.162;14.510;2023-02-19T17:25:22;11.30;70.70
39777;DHT22;25453;48.162;14.510;2023-02-19T17:27:49;11.30;70.60
39777;DHT22;25453;48.162;14.510;2023-02-19T17:30:18;11.30;70.50
39777;DHT22;25453;48.162;14.510;2023-02-19T17:32:49;11.30;70.40
39777;DHT22;25453;48.162;14.510;2023-02-19T17:35:18;11.30;70.40
39777;DHT22;25453;48.162;14.510;2023-02-19T17:37:46;11.30;70.30
39777;DHT22;25453;48.162;14.510;2023-02-19T17:40:26;11.30;70.30
39777;DHT22;25453;48.162;14.510;2023-02-19T17:42:59;11.30;70.30
39777;DHT22;25453;48.162;14.510;2023-02-19T17:45:26;11.40;70.20
39777;DHT22;25453;48.162;14.510;2023-02-19T17:47:53;11.40;70.10
39777;DHT22;25453;48.162;14.510;2023-02-19T17:50:23;11.40;70.10
39777;DHT22;25453;48.162;14.510;2023-02-19T17:52:50;11.40;70.00
39777;DHT22;25453;48.162;14.510;2023-02-19T17:55:18;11.40;69.90
39777;DHT22;25453;48.162;14.510;2023-02-19T17:57:45;11.40;69.90
39777;DHT22;25453;48.162;14.510;2023-02-19T18:00:14;11.30;69.90
39777;DHT22;25453;48.162;14.510;2023-02-19T18:02:42;11.30;70.00
39777;DHT22;25453;48.162;14.510;2023-02-19T18:05:09;11.30;70.10